sensor_id;sensor_type;location;lat;lon;timestamp;temperature;humidity
5226;DHT22;2632;51.666;7.146;2023-07-09T00:00:48;22.20;97.30
5226;DHT22;2632;51.666;7.146;2023-07-09T00:03:16;22.20;97.70
5226;DHT22;2632;51.666;7.146;2023-07-09T00:05:43;22.20;97.40
5226;DHT22;2632;51.666;7.146;2023-07-09T00:08:24;22.20;97.70
5226;DHT22;2632;51.666;7.146;2023-07-09T00:10:56;22.00;98.30
5226;DHT22;2632;51.666;7.146;2023-07-09T00:13:24;22.00;98.20
5226;DHT22;2632;51.666;7.146;2023-07-09T00:16:00;22.00;98.30
5226;DHT22;2632;51.666;7.146;2023-07-09T00:18:28;22.00;97.60
5226;DHT22;2632;51.666;7.146;2023-07-09T00:20:54;22.00;97.30
5226;DHT22;2632;51.666;7.146;2023-07-09T00:23:21;22.00;97.80
5226;DHT22;2632;51.666;7.146;2023-07-09T00:25:48;21.90;97.90
5226;DHT22;2632;51.666;7.146;2023-07-09T00:28:16;21.80;97.70
5226;DHT22;2632;51.666;7.146;2023-07-09T00:30:47;21.80;98.20
5226;DHT22;2632;51.666;7.146;2023-07-09T00:33:16;21.80;98.20
5226;DHT22;2632;51.666;7.146;2023-07-09T00:35:46;21.80;98.60
5226;DHT22;2632;51.666;7.146;2023-07-09T00:38:20;21.80;97.70
5226;DHT22;2632;51.666;7.146;2023-07-09T00:41:05;21.70;97.90
5226;DHT22;2632;51.666;7.146;2023-07-09T00:43:36;21.70;97.90
5226;DHT22;2632;51.666;7.146;2023-07-09T00:48:58;21.70;97.80
5226;DHT22;2632;51.666;7.146;2023-07-09T00:51:26;21.70;97.70
5226;DHT22;2632;51.666;7.146;2023-07-09T00:53:57;21.70;97.90
5226;DHT22;2632;51.666;7.146;2023-07-09T00:56:35;21.70;98.00
5226;DHT22;2632;51.666;7.146;2023-07-09T00:59:07;21.60;98.20
5226;DHT22;2632;51.666;7.146;2023-07-09T01:01:37;21.60;98.50
5226;DHT22;2632;51.666;7.146;2023-07-09T01:04:08;21.60;98.70
5226;DHT22;2632;51.666;7.146;2023-07-09T01:06:43;21.50;99.00
5226;DHT22;2632;51.666;7.146;2023-07-09T01:09:11;21.50;99.90
5226;DHT22;2632;51.666;7.146;2023-07-09T01:11:38;21.50;99.90
5226;DHT22;2632;51.666;7.146;2023-07-09T01:14:07;21.50;99.90
5226;DHT22;2632;51.666;7.146;2023-07-09T01:17:00;21.40;99.60
5226;DHT22;2632;51.666;7.146;2023-07-09T01:19:28;21.40;99.90
5226;DHT22;2632;51.666;7.146;2023-07-09T01:21:57;21.40;99.90
5226;DHT22;2632;51.666;7.146;2023-07-09T01:27:14;21.30;99.90
5226;DHT22;2632;51.666;7.146;2023-07-09T01:29:42;21.30;99.90
5226;DHT22;2632;51.666;7.146;2023-07-09T01:32:13;21.30;99.90
5226;DHT22;2632;51.666;7.146;2023-07-09T01:34:40;21.20;99.90
5226;DHT22;2632;51.666;7.146;2023-07-09T01:37:07;21.10;99.90
5226;DHT22;2632;51.666;7.146;2023-07-09T01:39:34;21.10;99.90
5226;DHT22;2632;51.666;7.146;2023-07-09T01:42:02;21.00;99.90
5226;DHT22;2632;51.666;7.146;2023-07-09T01:44:29;21.00;99.90
5226;DHT22;2632;51.666;7.146;2023-07-09T01:46:56;21.00;99.90
5226;DHT22;2632;51.666;7.146;2023-07-09T01:49:22;21.00;99.90
5226;DHT22;2632;51.666;7.146;2023-07-09T01:51:49;21.00;99.90
5226;DHT22;2632;51.666;7.146;2023-07-09T01:54:17;20.90;99.90
5226;DHT22;2632;51.666;7.146;2023-07-09T01:56:43;20.90;99.90
5226;DHT22;2632;51.666;7.146;2023-07-09T01:59:10;20.90;99.90
5226;DHT22;2632;51.666;7.146;2023-07-09T02:01:37;20.80;99.90
5226;DHT22;2632;51.666;7.146;2023-07-09T02:04:05;20.90;99.90
5226;DHT22;2632;51.666;7.146;2023-07-09T02:06:31;20.80;99.90
5226;DHT22;2632;51.666;7.146;2023-07-09T02:08:58;20.80;99.90
5226;DHT22;2632;51.666;7.146;2023-07-09T02:11:25;20.80;99.90
5226;DHT22;2632;51.666;7.146;2023-07-09T02:13:52;20.80;99.90
5226;DHT22;2632;51.666;7.146;2023-07-09T02:16:18;20.80;99.90
5226;DHT22;2632;51.666;7.146;2023-07-09T02:18:45;20.70;99.90
5226;DHT22;2632;51.666;7.146;2023-07-09T02:21:12;20.70;99.90
5226;DHT22;2632;51.666;7.146;2023-07-09T02:23:39;20.70;99.90
5226;DHT22;2632;51.666;7.146;2023-07-09T02:26:05;20.70;99.90
5226;DHT22;2632;51.666;7.146;2023-07-09T02:28:33;20.60;99.90
5226;DHT22;2632;51.666;7.146;2023-07-09T02:30:59;20.60;99.90
5226;DHT22;2632;51.666;7.146;2023-07-09T02:33:27;20.50;99.90
5226;DHT22;2632;51.666;7.146;2023-07-09T02:35:54;20.40;99.90
5226;DHT22;2632;51.666;7.146;2023-07-09T02:38:20;20.40;99.90
5226;DHT22;2632;51.666;7.146;2023-07-09T02:40:47;20.40;99.90
5226;DHT22;2632;51.666;7.146;2023-07-09T02:43:14;20.40;99.90
5226;DHT22;2632;51.666;7.146;2023-07-09T02:45:41;20.30;99.90
5226;DHT22;2632;51.666;7.146;2023-07-09T02:48:07;20.30;99.90
5226;DHT22;2632;51.666;7.146;2023-07-09T02:50:34;20.30;99.90
5226;DHT22;2632;51.666;7.146;2023-07-09T02:53:01;20.20;99.90
5226;DHT22;2632;51.666;7.146;2023-07-09T02:55:28;20.20;99.90
5226;DHT22;2632;51.666;7.146;2023-07-09T02:57:56;20.20;99.90
5226;DHT22;2632;51.666;7.146;2023-07-09T03:00:23;20.20;99.90
5226;DHT22;2632;51.666;7.146;2023-07-09T03:02:49;20.10;99.90
5226;DHT22;2632;51.666;7.146;2023-07-09T03:05:16;20.20;99.90
5226;DHT22;2632;51.666;7.146;2023-07-09T03:07:43;20.20;99.90
5226;DHT22;2632;51.666;7.146;2023-07-09T03:10:09;20.10;99.90
5226;DHT22;2632;51.666;7.146;2023-07-09T03:12:36;20.10;99.90
5226;DHT22;2632;51.666;7.146;2023-07-09T03:15:03;20.10;99.90
5226;DHT22;2632;51.666;7.146;2023-07-09T03:17:30;20.10;99.90
5226;DHT22;2632;51.666;7.146;2023-07-09T03:19:57;20.10;99.90
5226;DHT22;2632;51.666;7.146;2023-07-09T03:22:23;20.10;99.90
5226;DHT22;2632;51.666;7.146;2023-07-09T03:24:53;20.00;99.90
5226;DHT22;2632;51.666;7.146;2023-07-09T03:27:19;19.90;99.90
5226;DHT22;2632;51.666;7.146;2023-07-09T03:29:46;19.90;99.90
5226;DHT22;2632;51.666;7.146;2023-07-09T03:32:13;19.90;99.90
5226;DHT22;2632;51.666;7.146;2023-07-09T03:34:40;19.90;99.90
5226;DHT22;2632;51.666;7.146;2023-07-09T03:37:06;19.90;99.90
5226;DHT22;2632;51.666;7.146;2023-07-09T03:39:35;19.90;99.90
5226;DHT22;2632;51.666;7.146;2023-07-09T03:42:02;19.90;99.90
5226;DHT22;2632;51.666;7.146;2023-07-09T03:44:29;19.90;99.90
5226;DHT22;2632;51.666;7.146;2023-07-09T03:46:56;19.80;99.90
5226;DHT22;2632;51.666;7.146;2023-07-09T03:49:23;19.90;99.90
5226;DHT22;2632;51.666;7.146;2023-07-09T03:51:49;19.90;99.90
5226;DHT22;2632;51.666;7.146;2023-07-09T03:54:16;19.90;99.90
5226;DHT22;2632;51.666;7.146;2023-07-09T03:56:43;19.80;99.90
5226;DHT22;2632;51.666;7.146;2023-07-09T03:59:10;19.90;99.90
5226;DHT22;2632;51.666;7.146;2023-07-09T04:01:37;19.80;99.90
5226;DHT22;2632;51.666;7.146;2023-07-09T04:04:04;19.90;99.90
5226;DHT22;2632;51.666;7.146;2023-07-09T04:06:31;19.90;99.90
5226;DHT22;2632;51.666;7.146;2023-07-09T04:08:57;19.90;99.90
5226;DHT22;2632;51.666;7.146;2023-07-09T04:11:24;19.90;99.90
5226;DHT22;2632;51.666;7.146;2023-07-09T04:13:50;19.90;99.90
5226;DHT22;2632;51.666;7.146;2023-07-09T04:16:17;19.90;99.90
5226;DHT22;2632;51.666;7.146;2023-07-09T04:18:44;19.90;99.90
5226;DHT22;2632;51.666;7.146;2023-07-09T04:21:11;19.90;99.90
5226;DHT22;2632;51.666;7.146;2023-07-09T04:23:37;19.80;99.90
5226;DHT22;2632;51.666;7.146;2023-07-09T04:26:04;19.80;99.90
5226;DHT22;2632;51.666;7.146;2023-07-09T04:28:31;19.80;99.90
5226;DHT22;2632;51.666;7.146;2023-07-09T04:30:58;19.80;99.90
5226;DHT22;2632;51.666;7.146;2023-07-09T04:33:25;19.70;99.90
5226;DHT22;2632;51.666;7.146;2023-07-09T04:35:51;19.90;99.90
5226;DHT22;2632;51.666;7.146;2023-07-09T04:38:18;19.90;99.90
5226;DHT22;2632;51.666;7.146;2023-07-09T04:40:46;19.90;99.90
5226;DHT22;2632;51.666;7.146;2023-07-09T04:43:13;19.90;99.90
5226;DHT22;2632;51.666;7.146;2023-07-09T04:45:39;19.90;99.90
5226;DHT22;2632;51.666;7.146;2023-07-09T04:48:06;20.00;99.90
5226;DHT22;2632;51.666;7.146;2023-07-09T04:50:33;20.10;99.90
5226;DHT22;2632;51.666;7.146;2023-07-09T04:53:01;20.20;99.90
5226;DHT22;2632;51.666;7.146;2023-07-09T04:55:27;20.30;99.90
5226;DHT22;2632;51.666;7.146;2023-07-09T04:57:54;20.40;99.90
5226;DHT22;2632;51.666;7.146;2023-07-09T05:00:21;20.50;99.90
5226;DHT22;2632;51.666;7.146;2023-07-09T05:02:48;20.50;99.90
5226;DHT22;2632;51.666;7.146;2023-07-09T05:05:15;20.50;99.90
5226;DHT22;2632;51.666;7.146;2023-07-09T05:07:42;20.60;99.90
5226;DHT22;2632;51.666;7.146;2023-07-09T05:10:09;20.70;99.90
5226;DHT22;2632;51.666;7.146;2023-07-09T05:12:36;20.80;99.90
5226;DHT22;2632;51.666;7.146;2023-07-09T05:15:12;20.80;99.90
5226;DHT22;2632;51.666;7.146;2023-07-09T05:17:39;20.90;99.90
5226;DHT22;2632;51.666;7.146;2023-07-09T05:20:06;21.00;99.90
5226;DHT22;2632;51.666;7.146;2023-07-09T05:22:33;21.00;99.90
5226;DHT22;2632;51.666;7.146;2023-07-09T05:25:00;21.10;99.90
5226;DHT22;2632;51.666;7.146;2023-07-09T05:27:26;21.20;99.90
5226;DHT22;2632;51.666;7.146;2023-07-09T05:29:53;21.20;99.90
5226;DHT22;2632;51.666;7.146;2023-07-09T05:32:20;21.30;99.90
5226;DHT22;2632;51.666;7.146;2023-07-09T05:34:46;21.40;99.90
5226;DHT22;2632;51.666;7.146;2023-07-09T05:37:13;21.50;99.90
5226;DHT22;2632;51.666;7.146;2023-07-09T05:39:40;21.60;99.90
5226;DHT22;2632;51.666;7.146;2023-07-09T05:42:07;21.60;99.90
5226;DHT22;2632;51.666;7.146;2023-07-09T05:44:34;21.70;99.90
5226;DHT22;2632;51.666;7.146;2023-07-09T05:47:01;21.70;99.90
5226;DHT22;2632;51.666;7.146;2023-07-09T05:49:27;21.80;99.90
5226;DHT22;2632;51.666;7.146;2023-07-09T05:51:54;21.90;99.90
5226;DHT22;2632;51.666;7.146;2023-07-09T05:54:21;22.10;99.90
5226;DHT22;2632;51.666;7.146;2023-07-09T05:56:47;22.10;99.90
5226;DHT22;2632;51.666;7.146;2023-07-09T05:59:14;22.10;99.90
5226;DHT22;2632;51.666;7.146;2023-07-09T06:01:41;22.20;99.90
5226;DHT22;2632;51.666;7.146;2023-07-09T06:04:07;22.20;99.90
5226;DHT22;2632;51.666;7.146;2023-07-09T06:06:34;22.40;99.90
5226;DHT22;2632;51.666;7.146;2023-07-09T06:09:01;22.50;99.90
5226;DHT22;2632;51.666;7.146;2023-07-09T06:11:28;22.50;99.90
5226;DHT22;2632;51.666;7.146;2023-07-09T06:13:54;22.60;99.90
5226;DHT22;2632;51.666;7.146;2023-07-09T06:16:22;22.70;99.90
5226;DHT22;2632;51.666;7.146;2023-07-09T06:18:49;22.80;99.90
5226;DHT22;2632;51.666;7.146;2023-07-09T06:21:15;22.90;99.90
5226;DHT22;2632;51.666;7.146;2023-07-09T06:23:42;23.00;99.80
5226;DHT22;2632;51.666;7.146;2023-07-09T06:26:09;23.20;99.80
5226;DHT22;2632;51.666;7.146;2023-07-09T06:28:35;23.20;99.90
5226;DHT22;2632;51.666;7.146;2023-07-09T06:31:02;23.30;99.90
5226;DHT22;2632;51.666;7.146;2023-07-09T06:33:29;23.40;99.90
5226;DHT22;2632;51.666;7.146;2023-07-09T06:35:58;23.50;99.80
5226;DHT22;2632;51.666;7.146;2023-07-09T06:38:26;23.60;99.60
5226;DHT22;2632;51.666;7.146;2023-07-09T06:40:54;23.70;99.90
5226;DHT22;2632;51.666;7.146;2023-07-09T06:43:21;23.80;99.30
5226;DHT22;2632;51.666;7.146;2023-07-09T06:45:53;23.90;99.90
5226;DHT22;2632;51.666;7.146;2023-07-09T06:48:21;24.00;99.30
5226;DHT22;2632;51.666;7.146;2023-07-09T06:50:48;24.10;99.10
5226;DHT22;2632;51.666;7.146;2023-07-09T06:53:15;24.20;98.80
5226;DHT22;2632;51.666;7.146;2023-07-09T06:55:42;24.30;99.30
5226;DHT22;2632;51.666;7.146;2023-07-09T06:58:09;24.40;99.00
5226;DHT22;2632;51.666;7.146;2023-07-09T07:00:36;24.50;98.30
5226;DHT22;2632;51.666;7.146;2023-07-09T07:03:04;24.60;97.90
5226;DHT22;2632;51.666;7.146;2023-07-09T07:05:32;24.80;97.30
5226;DHT22;2632;51.666;7.146;2023-07-09T07:08:00;24.90;96.40
5226;DHT22;2632;51.666;7.146;2023-07-09T07:10:26;25.00;95.70
5226;DHT22;2632;51.666;7.146;2023-07-09T07:12:53;25.10;94.90
5226;DHT22;2632;51.666;7.146;2023-07-09T07:15:20;25.30;94.50
5226;DHT22;2632;51.666;7.146;2023-07-09T07:17:47;25.40;94.20
5226;DHT22;2632;51.666;7.146;2023-07-09T07:20:15;25.50;93.80
5226;DHT22;2632;51.666;7.146;2023-07-09T07:22:42;25.50;93.70
5226;DHT22;2632;51.666;7.146;2023-07-09T07:25:09;25.70;95.20
5226;DHT22;2632;51.666;7.146;2023-07-09T07:27:36;25.70;93.60
5226;DHT22;2632;51.666;7.146;2023-07-09T07:30:04;25.90;93.30
5226;DHT22;2632;51.666;7.146;2023-07-09T07:32:31;26.00;94.00
5226;DHT22;2632;51.666;7.146;2023-07-09T07:34:58;26.20;94.00
5226;DHT22;2632;51.666;7.146;2023-07-09T07:37:24;26.40;94.80
5226;DHT22;2632;51.666;7.146;2023-07-09T07:39:51;26.70;92.70
5226;DHT22;2632;51.666;7.146;2023-07-09T07:42:18;27.00;90.60
5226;DHT22;2632;51.666;7.146;2023-07-09T07:44:44;27.40;89.60
5226;DHT22;2632;51.666;7.146;2023-07-09T07:47:11;27.80;90.10
5226;DHT22;2632;51.666;7.146;2023-07-09T07:49:41;28.00;86.50
5226;DHT22;2632;51.666;7.146;2023-07-09T07:52:07;28.50;86.50
5226;DHT22;2632;51.666;7.146;2023-07-09T07:54:34;28.70;86.30
5226;DHT22;2632;51.666;7.146;2023-07-09T07:57:01;29.00;88.90
5226;DHT22;2632;51.666;7.146;2023-07-09T07:59:28;29.20;84.30
5226;DHT22;2632;51.666;7.146;2023-07-09T08:01:54;29.60;84.80
5226;DHT22;2632;51.666;7.146;2023-07-09T08:04:21;30.00;81.50
5226;DHT22;2632;51.666;7.146;2023-07-09T08:06:48;30.40;79.20
5226;DHT22;2632;51.666;7.146;2023-07-09T08:09:15;30.80;77.20
5226;DHT22;2632;51.666;7.146;2023-07-09T08:11:42;31.20;76.30
5226;DHT22;2632;51.666;7.146;2023-07-09T08:14:10;31.60;76.80
5226;DHT22;2632;51.666;7.146;2023-07-09T08:16:37;31.60;74.00
5226;DHT22;2632;51.666;7.146;2023-07-09T08:19:04;31.90;71.70
5226;DHT22;2632;51.666;7.146;2023-07-09T08:21:31;32.20;70.90
5226;DHT22;2632;51.666;7.146;2023-07-09T08:23:57;32.80;69.20
5226;DHT22;2632;51.666;7.146;2023-07-09T08:26:24;33.20;68.70
5226;DHT22;2632;51.666;7.146;2023-07-09T08:28:51;33.30;68.20
5226;DHT22;2632;51.666;7.146;2023-07-09T08:31:18;32.20;71.40
5226;DHT22;2632;51.666;7.146;2023-07-09T08:33:45;31.40;68.00
5226;DHT22;2632;51.666;7.146;2023-07-09T08:36:12;31.20;69.60
5226;DHT22;2632;51.666;7.146;2023-07-09T08:38:39;30.90;70.80
5226;DHT22;2632;51.666;7.146;2023-07-09T08:41:35;30.90;73.60
5226;DHT22;2632;51.666;7.146;2023-07-09T08:44:12;30.90;73.50
5226;DHT22;2632;51.666;7.146;2023-07-09T08:49:41;31.00;72.40
5226;DHT22;2632;51.666;7.146;2023-07-09T08:52:17;31.20;71.00
5226;DHT22;2632;51.666;7.146;2023-07-09T08:54:49;31.40;71.40
5226;DHT22;2632;51.666;7.146;2023-07-09T08:57:23;31.70;72.20
5226;DHT22;2632;51.666;7.146;2023-07-09T08:59:59;31.80;68.50
5226;DHT22;2632;51.666;7.146;2023-07-09T09:02:38;32.00;69.30
5226;DHT22;2632;51.666;7.146;2023-07-09T09:05:06;31.90;67.70
5226;DHT22;2632;51.666;7.146;2023-07-09T09:07:43;32.00;67.80
5226;DHT22;2632;51.666;7.146;2023-07-09T09:10:14;32.10;70.50
5226;DHT22;2632;51.666;7.146;2023-07-09T09:15:20;32.20;63.40
5226;DHT22;2632;51.666;7.146;2023-07-09T09:17:52;32.20;64.00
5226;DHT22;2632;51.666;7.146;2023-07-09T09:20:20;32.30;63.10
5226;DHT22;2632;51.666;7.146;2023-07-09T09:23:08;32.50;64.30
5226;DHT22;2632;51.666;7.146;2023-07-09T09:25:41;32.40;61.20
5226;DHT22;2632;51.666;7.146;2023-07-09T09:28:08;32.50;63.80
5226;DHT22;2632;51.666;7.146;2023-07-09T09:30:35;32.60;67.50
5226;DHT22;2632;51.666;7.146;2023-07-09T09:33:08;32.70;61.50
5226;DHT22;2632;51.666;7.146;2023-07-09T09:35:43;32.70;62.30
5226;DHT22;2632;51.666;7.146;2023-07-09T09:38:19;32.90;60.60
5226;DHT22;2632;51.666;7.146;2023-07-09T09:40:46;33.10;61.40
5226;DHT22;2632;51.666;7.146;2023-07-09T09:43:18;33.00;59.80
5226;DHT22;2632;51.666;7.146;2023-07-09T09:45:48;33.20;57.60
5226;DHT22;2632;51.666;7.146;2023-07-09T09:48:27;33.20;58.80
5226;DHT22;2632;51.666;7.146;2023-07-09T09:50:54;33.30;59.50
5226;DHT22;2632;51.666;7.146;2023-07-09T09:53:24;33.50;59.30
5226;DHT22;2632;51.666;7.146;2023-07-09T09:55:52;33.80;58.50
5226;DHT22;2632;51.666;7.146;2023-07-09T09:58:20;34.10;57.60
5226;DHT22;2632;51.666;7.146;2023-07-09T10:00:53;34.30;57.90
5226;DHT22;2632;51.666;7.146;2023-07-09T10:03:21;34.40;59.60
5226;DHT22;2632;51.666;7.146;2023-07-09T10:06:00;34.20;57.70
5226;DHT22;2632;51.666;7.146;2023-07-09T10:08:46;34.20;56.30
5226;DHT22;2632;51.666;7.146;2023-07-09T10:11:44;34.20;60.50
5226;DHT22;2632;51.666;7.146;2023-07-09T10:17:38;34.40;58.20
5226;DHT22;2632;51.666;7.146;2023-07-09T10:23:18;34.50;54.20
5226;DHT22;2632;51.666;7.146;2023-07-09T10:28:47;34.90;53.80
5226;DHT22;2632;51.666;7.146;2023-07-09T10:36:29;34.80;54.80
5226;DHT22;2632;51.666;7.146;2023-07-09T10:41:41;35.10;54.60
5226;DHT22;2632;51.666;7.146;2023-07-09T10:46:47;35.10;54.50
5226;DHT22;2632;51.666;7.146;2023-07-09T10:49:16;35.00;52.60
5226;DHT22;2632;51.666;7.146;2023-07-09T10:51:54;35.20;52.50
5226;DHT22;2632;51.666;7.146;2023-07-09T10:59:42;35.40;51.40
5226;DHT22;2632;51.666;7.146;2023-07-09T11:02:24;35.60;52.10
5226;DHT22;2632;51.666;7.146;2023-07-09T11:07:24;35.70;52.80
5226;DHT22;2632;51.666;7.146;2023-07-09T11:09:52;35.70;53.30
5226;DHT22;2632;51.666;7.146;2023-07-09T11:12:34;35.50;49.90
5226;DHT22;2632;51.666;7.146;2023-07-09T11:17:42;36.00;50.80
5226;DHT22;2632;51.666;7.146;2023-07-09T11:20:27;36.20;50.80
5226;DHT22;2632;51.666;7.146;2023-07-09T11:23:02;36.00;54.20
5226;DHT22;2632;51.666;7.146;2023-07-09T11:25:42;36.20;52.50
5226;DHT22;2632;51.666;7.146;2023-07-09T11:28:09;36.20;51.40
5226;DHT22;2632;51.666;7.146;2023-07-09T11:30:55;35.70;48.10
5226;DHT22;2632;51.666;7.146;2023-07-09T11:33:31;35.70;52.20
5226;DHT22;2632;51.666;7.146;2023-07-09T11:36:11;35.90;49.30
5226;DHT22;2632;51.666;7.146;2023-07-09T11:38:42;36.20;51.80
5226;DHT22;2632;51.666;7.146;2023-07-09T11:50:28;36.50;50.90
5226;DHT22;2632;51.666;7.146;2023-07-09T11:53:03;36.60;48.40
5226;DHT22;2632;51.666;7.146;2023-07-09T11:55:38;36.50;49.70
5226;DHT22;2632;51.666;7.146;2023-07-09T11:58:07;36.50;47.40
5226;DHT22;2632;51.666;7.146;2023-07-09T12:03:07;36.60;46.60
5226;DHT22;2632;51.666;7.146;2023-07-09T12:05:37;36.60;48.20
5226;DHT22;2632;51.666;7.146;2023-07-09T12:08:06;36.60;48.80
5226;DHT22;2632;51.666;7.146;2023-07-09T12:10:35;36.20;51.60
5226;DHT22;2632;51.666;7.146;2023-07-09T12:13:02;36.30;52.90
5226;DHT22;2632;51.666;7.146;2023-07-09T12:15:30;36.10;49.60
5226;DHT22;2632;51.666;7.146;2023-07-09T12:18:10;35.70;48.70
5226;DHT22;2632;51.666;7.146;2023-07-09T12:20:37;35.80;50.90
5226;DHT22;2632;51.666;7.146;2023-07-09T12:23:27;35.90;52.70
5226;DHT22;2632;51.666;7.146;2023-07-09T12:25:54;35.90;51.00
5226;DHT22;2632;51.666;7.146;2023-07-09T12:28:22;35.90;48.70
5226;DHT22;2632;51.666;7.146;2023-07-09T12:30:51;36.10;50.50
5226;DHT22;2632;51.666;7.146;2023-07-09T12:33:20;36.20;49.30
5226;DHT22;2632;51.666;7.146;2023-07-09T12:35:53;35.90;48.00
5226;DHT22;2632;51.666;7.146;2023-07-09T12:38:23;35.90;50.00
5226;DHT22;2632;51.666;7.146;2023-07-09T12:40:52;35.60;48.60
5226;DHT22;2632;51.666;7.146;2023-07-09T12:43:25;35.70;49.70
5226;DHT22;2632;51.666;7.146;2023-07-09T12:45:53;35.80;50.90
5226;DHT22;2632;51.666;7.146;2023-07-09T12:48:26;35.70;50.50
5226;DHT22;2632;51.666;7.146;2023-07-09T12:50:58;35.50;49.10
5226;DHT22;2632;51.666;7.146;2023-07-09T12:53:28;35.50;48.80
5226;DHT22;2632;51.666;7.146;2023-07-09T12:55:56;35.50;47.70
5226;DHT22;2632;51.666;7.146;2023-07-09T12:58:32;35.40;47.20
5226;DHT22;2632;51.666;7.146;2023-07-09T13:01:04;35.50;47.10
5226;DHT22;2632;51.666;7.146;2023-07-09T13:03:33;35.50;48.30
5226;DHT22;2632;51.666;7.146;2023-07-09T13:06:05;35.60;48.60
5226;DHT22;2632;51.666;7.146;2023-07-09T13:08:40;35.30;51.00
5226;DHT22;2632;51.666;7.146;2023-07-09T13:11:15;34.90;55.10
5226;DHT22;2632;51.666;7.146;2023-07-09T13:13:54;34.60;57.30
5226;DHT22;2632;51.666;7.146;2023-07-09T13:16:21;34.70;47.40
5226;DHT22;2632;51.666;7.146;2023-07-09T13:18:48;35.00;48.50
5226;DHT22;2632;51.666;7.146;2023-07-09T13:21:19;34.80;45.60
5226;DHT22;2632;51.666;7.146;2023-07-09T13:23:46;34.90;46.80
5226;DHT22;2632;51.666;7.146;2023-07-09T13:26:14;35.00;46.50
5226;DHT22;2632;51.666;7.146;2023-07-09T13:28:42;35.00;45.70
5226;DHT22;2632;51.666;7.146;2023-07-09T13:31:14;34.90;46.50
5226;DHT22;2632;51.666;7.146;2023-07-09T13:33:50;35.10;45.90
5226;DHT22;2632;51.666;7.146;2023-07-09T13:36:19;35.30;45.60
5226;DHT22;2632;51.666;7.146;2023-07-09T13:38:45;35.20;46.20
5226;DHT22;2632;51.666;7.146;2023-07-09T13:41:16;35.10;47.90
5226;DHT22;2632;51.666;7.146;2023-07-09T13:43:46;34.90;44.10
5226;DHT22;2632;51.666;7.146;2023-07-09T13:46:13;35.00;46.60
5226;DHT22;2632;51.666;7.146;2023-07-09T13:48:42;34.80;45.00
5226;DHT22;2632;51.666;7.146;2023-07-09T13:51:21;34.70;48.70
5226;DHT22;2632;51.666;7.146;2023-07-09T13:53:50;34.50;45.00
5226;DHT22;2632;51.666;7.146;2023-07-09T13:56:17;34.40;46.30
5226;DHT22;2632;51.666;7.146;2023-07-09T13:58:44;34.30;50.70
5226;DHT22;2632;51.666;7.146;2023-07-09T14:01:17;34.20;46.50
5226;DHT22;2632;51.666;7.146;2023-07-09T14:03:45;34.00;45.40
5226;DHT22;2632;51.666;7.146;2023-07-09T14:06:13;33.80;45.90
5226;DHT22;2632;51.666;7.146;2023-07-09T14:08:40;33.70;51.40
5226;DHT22;2632;51.666;7.146;2023-07-09T14:11:14;33.50;47.70
5226;DHT22;2632;51.666;7.146;2023-07-09T14:13:42;33.30;57.10
5226;DHT22;2632;51.666;7.146;2023-07-09T14:16:11;33.30;51.10
5226;DHT22;2632;51.666;7.146;2023-07-09T14:18:38;33.10;56.60
5226;DHT22;2632;51.666;7.146;2023-07-09T14:21:20;32.70;55.90
5226;DHT22;2632;51.666;7.146;2023-07-09T14:23:49;32.60;54.80
5226;DHT22;2632;51.666;7.146;2023-07-09T14:26:16;32.50;57.20
5226;DHT22;2632;51.666;7.146;2023-07-09T14:28:42;32.20;55.50
5226;DHT22;2632;51.666;7.146;2023-07-09T14:31:28;32.10;58.10
5226;DHT22;2632;51.666;7.146;2023-07-09T14:34:15;31.90;59.30
5226;DHT22;2632;51.666;7.146;2023-07-09T14:36:42;31.70;61.30
5226;DHT22;2632;51.666;7.146;2023-07-09T14:39:09;31.40;61.70
5226;DHT22;2632;51.666;7.146;2023-07-09T14:41:37;31.20;65.50
5226;DHT22;2632;51.666;7.146;2023-07-09T14:44:19;31.20;67.90
5226;DHT22;2632;51.666;7.146;2023-07-09T14:46:58;31.10;66.20
5226;DHT22;2632;51.666;7.146;2023-07-09T14:49:26;31.00;66.10
5226;DHT22;2632;51.666;7.146;2023-07-09T14:51:53;31.00;63.20
5226;DHT22;2632;51.666;7.146;2023-07-09T14:54:23;30.90;60.70
5226;DHT22;2632;51.666;7.146;2023-07-09T14:56:51;30.60;64.80
5226;DHT22;2632;51.666;7.146;2023-07-09T14:59:18;29.80;69.60
5226;DHT22;2632;51.666;7.146;2023-07-09T15:01:46;28.90;77.60
5226;DHT22;2632;51.666;7.146;2023-07-09T15:06:53;26.90;92.00
5226;DHT22;2632;51.666;7.146;2023-07-09T15:09:27;26.50;93.40
5226;DHT22;2632;51.666;7.146;2023-07-09T15:11:57;26.10;93.60
5226;DHT22;2632;51.666;7.146;2023-07-09T15:14:26;25.70;97.30
5226;DHT22;2632;51.666;7.146;2023-07-09T15:16:53;25.40;99.90
5226;DHT22;2632;51.666;7.146;2023-07-09T15:19:25;25.10;99.90
5226;DHT22;2632;51.666;7.146;2023-07-09T15:21:53;25.20;99.90
5226;DHT22;2632;51.666;7.146;2023-07-09T15:24:27;25.00;99.90
5226;DHT22;2632;51.666;7.146;2023-07-09T15:26:56;24.90;99.90
5226;DHT22;2632;51.666;7.146;2023-07-09T15:29:28;24.80;99.90
5226;DHT22;2632;51.666;7.146;2023-07-09T15:31:55;24.80;99.90
5226;DHT22;2632;51.666;7.146;2023-07-09T15:34:22;24.80;99.90
5226;DHT22;2632;51.666;7.146;2023-07-09T15:36:50;24.70;99.90
5226;DHT22;2632;51.666;7.146;2023-07-09T15:39:18;24.20;99.90
5226;DHT22;2632;51.666;7.146;2023-07-09T15:41:47;24.00;99.90
5226;DHT22;2632;51.666;7.146;2023-07-09T15:44:15;23.70;99.90
5226;DHT22;2632;51.666;7.146;2023-07-09T15:46:50;23.40;99.90
5226;DHT22;2632;51.666;7.146;2023-07-09T15:49:18;23.30;99.90
5226;DHT22;2632;51.666;7.146;2023-07-09T15:51:45;23.40;99.90
5226;DHT22;2632;51.666;7.146;2023-07-09T15:54:18;23.40;99.90
5226;DHT22;2632;51.666;7.146;2023-07-09T15:56:46;23.60;99.90
5226;DHT22;2632;51.666;7.146;2023-07-09T15:59:33;23.70;99.90
5226;DHT22;2632;51.666;7.146;2023-07-09T16:02:08;23.70;99.90
5226;DHT22;2632;51.666;7.146;2023-07-09T16:04:35;23.60;99.90
5226;DHT22;2632;51.666;7.146;2023-07-09T16:07:02;23.60;99.90
5226;DHT22;2632;51.666;7.146;2023-07-09T16:09:29;23.60;99.90
5226;DHT22;2632;51.666;7.146;2023-07-09T16:11:56;23.50;99.90
5226;DHT22;2632;51.666;7.146;2023-07-09T16:14:25;23.00;99.90
5226;DHT22;2632;51.666;7.146;2023-07-09T16:16:54;22.90;99.90
5226;DHT22;2632;51.666;7.146;2023-07-09T16:19:24;23.00;99.90
5226;DHT22;2632;51.666;7.146;2023-07-09T16:21:56;23.20;99.90
5226;DHT22;2632;51.666;7.146;2023-07-09T16:24:26;23.10;99.90
5226;DHT22;2632;51.666;7.146;2023-07-09T16:26:56;23.00;99.90
5226;DHT22;2632;51.666;7.146;2023-07-09T16:29:26;23.00;99.90
5226;DHT22;2632;51.666;7.146;2023-07-09T16:31:55;23.00;99.90
5226;DHT22;2632;51.666;7.146;2023-07-09T16:34:26;23.10;99.90
5226;DHT22;2632;51.666;7.146;2023-07-09T16:36:54;23.30;99.90
5226;DHT22;2632;51.666;7.146;2023-07-09T16:39:26;23.10;99.90
5226;DHT22;2632;51.666;7.146;2023-07-09T16:41:54;23.10;99.90
5226;DHT22;2632;51.666;7.146;2023-07-09T16:44:22;23.10;99.90
5226;DHT22;2632;51.666;7.146;2023-07-09T16:46:50;23.10;99.90
5226;DHT22;2632;51.666;7.146;2023-07-09T16:49:37;23.20;99.90
5226;DHT22;2632;51.666;7.146;2023-07-09T16:52:34;23.20;99.90
5226;DHT22;2632;51.666;7.146;2023-07-09T16:55:01;23.20;99.90
5226;DHT22;2632;51.666;7.146;2023-07-09T16:57:29;23.30;99.90
5226;DHT22;2632;51.666;7.146;2023-07-09T17:00:20;23.60;99.90
5226;DHT22;2632;51.666;7.146;2023-07-09T17:02:47;23.60;99.90
5226;DHT22;2632;51.666;7.146;2023-07-09T17:05:15;23.50;99.90
5226;DHT22;2632;51.666;7.146;2023-07-09T17:07:42;23.30;99.90
5226;DHT22;2632;51.666;7.146;2023-07-09T17:10:11;23.30;99.90
5226;DHT22;2632;51.666;7.146;2023-07-09T17:12:38;23.30;99.90